Time;durP1;ratioP1;P1;durP2;ratioP2;P2;SDS_P1;SDS_P2;PMS_P1;PMS_P2;Temp;Humidity;BMP_temperature;BMP_pressure;BME280_temperature;BME280_humidity;BME280_pressure;Samples;Min_cycle;Max_cycle;Signal;HPM_P1;HPM_P2
2023/03/10 00:00:54;;;;;;;17.40;10.85;;;;;;;8.23;100.00;98645.63;5231919;28;20052;-76
2023/03/10 00:03:25;;;;;;;12.40;11.02;;;;;;;8.14;100.00;98643.22;5232139;28;20052;-76
2023/03/10 00:05:56;;;;;;;12.45;10.05;;;;;;;8.08;100.00;98651.72;5233156;28;20013;-76
2023/03/10 00:08:27;;;;;;;12.70;10.00;;;;;;;8.05;100.00;98658.91;5232578;28;20022;-76
2023/03/10 00:10:59;;;;;;;11.90;10.70;;;;;;;8.13;100.00;98654.63;5228255;28;20022;-75
2023/03/10 00:13:31;;;;;;;12.75;9.20;;;;;;;8.09;100.00;98654.16;5228813;28;20021;-77
2023/03/10 00:16:04;;;;;;;10.18;9.02;;;;;;;8.09;100.00;98651.56;5229459;28;20498;-76
2023/03/10 00:18:35;;;;;;;10.18;9.00;;;;;;;8.13;100.00;98652.03;5231935;28;20117;-76
2023/03/10 00:21:12;;;;;;;10.73;9.27;;;;;;;8.24;100.00;98647.25;5231635;28;20116;-76
2023/03/10 00:23:44;;;;;;;10.20;8.93;;;;;;;8.25;100.00;98641.06;5230428;28;20033;-76
2023/03/10 00:26:17;;;;;;;10.07;8.93;;;;;;;8.14;100.00;98640.59;5232956;28;20040;-77
2023/03/10 00:28:49;;;;;;;9.88;8.70;;;;;;;8.12;100.00;98635.56;5230599;28;20108;-76
2023/03/10 00:31:23;;;;;;;12.23;8.77;;;;;;;8.16;100.00;98641.25;5232144;28;20036;-76
2023/03/10 00:33:56;;;;;;;10.40;9.23;;;;;;;8.11;100.00;98635.75;5232644;28;20104;-76
2023/03/10 00:36:28;;;;;;;11.73;8.80;;;;;;;8.07;100.00;98637.03;5232853;28;20632;-75
2023/03/10 00:39:00;;;;;;;10.02;8.40;;;;;;;8.09;100.00;98638.50;5231222;28;20416;-76
2023/03/10 00:41:38;;;;;;;10.63;8.35;;;;;;;8.18;100.00;98639.28;5231612;28;20029;-76
2023/03/10 00:44:09;;;;;;;10.48;8.93;;;;;;;8.09;100.00;98646.34;5230902;28;20022;-76
2023/03/10 00:46:41;;;;;;;8.95;7.82;;;;;;;8.09;100.00;98643.72;5233190;28;20021;-78
2023/03/10 00:49:14;;;;;;;10.55;8.02;;;;;;;8.24;100.00;98638.63;5232910;28;20112;-76
2023/03/10 00:51:46;;;;;;;9.52;7.95;;;;;;;8.20;100.00;98639.94;5232971;28;20156;-76
2023/03/10 00:54:17;;;;;;;10.00;8.93;;;;;;;8.31;100.00;98647.41;5232677;28;20107;-76
2023/03/10 00:56:48;;;;;;;11.98;8.35;;;;;;;8.24;100.00;98636.81;5232281;28;20029;-77
2023/03/10 00:59:19;;;;;;;9.68;8.43;;;;;;;8.27;100.00;98639.09;5230061;28;20077;-76
2023/03/10 01:01:51;;;;;;;10.05;7.45;;;;;;;8.32;100.00;98641.19;5230261;28;20021;-76
2023/03/10 01:04:22;;;;;;;10.57;7.30;;;;;;;8.38;100.00;98648.38;5233348;28;20036;-76
2023/03/10 01:06:53;;;;;;;9.43;7.70;;;;;;;8.44;100.00;98639.84;5232133;28;20027;-77
2023/03/10 01:09:25;;;;;;;11.35;7.28;;;;;;;8.55;100.00;98643.09;5231554;28;21084;-77
2023/03/10 01:11:56;;;;;;;8.27;6.13;;;;;;;8.68;100.00;98645.97;5232972;28;20118;-76
2023/03/10 01:14:27;;;;;;;8.18;5.80;;;;;;;8.70;100.00;98641.38;5233183;28;20029;-76
2023/03/10 01:16:59;;;;;;;6.32;5.43;;;;;;;8.78;100.00;98639.50;5231987;28;20083;-76
2023/03/10 01:19:30;;;;;;;6.05;5.45;;;;;;;8.89;100.00;98633.09;5231949;28;20044;-77
2023/03/10 01:22:01;;;;;;;7.68;6.00;;;;;;;8.94;100.00;98632.56;5231634;28;20040;-76
2023/03/10 01:24:32;;;;;;;9.02;5.50;;;;;;;9.04;100.00;98625.31;5233575;28;20022;-76
2023/03/10 01:27:04;;;;;;;7.13;4.90;;;;;;;9.13;100.00;98618.22;5232739;28;20076;-76
2023/03/10 01:29:35;;;;;;;5.93;4.60;;;;;;;9.22;100.00;98617.19;5231256;28;20223;-76
2023/03/10 01:32:06;;;;;;;5.68;5.15;;;;;;;9.36;100.00;98616.41;5232438;28;20100;-77
2023/03/10 01:34:38;;;;;;;8.25;5.53;;;;;;;9.35;100.00;98613.97;5232234;28;20104;-76
2023/03/10 01:37:09;;;;;;;8.13;6.05;;;;;;;9.44;100.00;98615.53;5234945;28;20060;-76
2023/03/10 01:39:40;;;;;;;7.65;5.60;;;;;;;9.45;100.00;98610.13;5235962;28;20075;-76
2023/03/10 01:42:11;;;;;;;6.68;5.97;;;;;;;9.59;100.00;98611.13;5233751;28;20049;-78
2023/03/10 01:45:03;;;;;;;8.85;6.00;;;;;;;9.74;100.00;98598.06;5236819;28;20036;-76
2023/03/10 01:47:34;;;;;;;8.00;6.22;;;;;;;9.58;100.00;98606.88;5234772;28;20025;-76
2023/03/10 01:50:12;;;;;;;6.32;5.32;;;;;;;9.66;100.00;98601.59;5235619;28;20022;-76
2023/03/10 01:52:51;;;;;;;6.68;5.80;;;;;;;9.80;100.00;98597.34;5235797;28;20040;-76
2023/03/10 01:55:32;;;;;;;6.78;6.15;;;;;;;9.83;100.00;98589.13;5235893;28;20557;-76
2023/03/10 01:58:05;;;;;;;7.22;6.05;;;;;;;9.81;100.00;98598.16;5236340;28;20030;-76
2023/03/10 02:00:39;;;;;;;7.20;6.10;;;;;;;9.86;100.00;98603.66;5236042;28;20386;-76
2023/03/10 02:03:20;;;;;;;8.40;6.95;;;;;;;9.98;100.00;98586.53;5235353;28;20508;-76
2023/03/10 02:05:58;;;;;;;6.18;5.55;;;;;;;9.96;100.00;98593.72;5236430;28;20029;-76
2023/03/10 02:08:37;;;;;;;10.05;6.30;;;;;;;9.95;100.00;98599.97;5234904;28;20029;-76
2023/03/10 02:11:09;;;;;;;8.40;6.40;;;;;;;9.92;100.00;98595.88;5236901;28;20424;-76
2023/03/10 02:13:42;;;;;;;6.88;6.18;;;;;;;9.95;100.00;98600.75;5235848;28;20033;-76
2023/03/10 02:16:15;;;;;;;7.30;6.50;;;;;;;9.93;100.00;98597.53;5233844;28;20025;-77
2023/03/10 02:18:47;;;;;;;7.00;5.55;;;;;;;9.96;100.00;98598.97;5233709;28;20049;-76
2023/03/10 02:21:30;;;;;;;6.87;6.27;;;;;;;10.24;100.00;98591.28;5235772;28;20048;-77
2023/03/10 02:24:30;;;;;;;8.63;6.03;;;;;;;10.16;100.00;98573.06;5234978;28;20045;-77
2023/03/10 02:27:27;;;;;;;7.60;5.57;;;;;;;10.18;100.00;98573.69;5235738;28;20021;-76
2023/03/10 02:30:04;;;;;;;6.78;5.43;;;;;;;10.10;100.00;98565.94;5234319;28;20036;-76
2023/03/10 02:32:41;;;;;;;7.35;5.55;;;;;;;10.15;100.00;98563.56;5235122;28;20021;-77
2023/03/10 02:35:13;;;;;;;10.93;6.28;;;;;;;10.07;100.00;98567.09;5235528;28;20095;-78
2023/03/10 02:37:45;;;;;;;7.97;5.72;;;;;;;9.99;100.00;98552.31;5235712;28;20025;-76
2023/03/10 02:40:36;;;;;;;8.93;5.80;;;;;;;10.07;100.00;98561.88;5234544;28;20121;-76
2023/03/10 02:43:17;;;;;;;6.05;5.25;;;;;;;10.10;100.00;98555.47;5232958;28;20037;-77
2023/03/10 02:45:51;;;;;;;6.93;5.28;;;;;;;10.05;100.00;98556.03;5233554;28;20021;-76
2023/03/10 02:48:28;;;;;;;6.82;5.60;;;;;;;10.05;100.00;98555.22;5233817;28;20635;-76
2023/03/10 02:51:04;;;;;;;8.52;5.60;;;;;;;10.05;100.00;98545.56;5234062;28;20483;-77
2023/03/10 02:53:35;;;;;;;7.47;5.40;;;;;;;10.01;100.00;98552.16;5233831;28;20033;-76
2023/03/10 02:56:06;;;;;;;9.18;5.80;;;;;;;9.98;100.00;98542.06;5235181;28;20032;-76
2023/03/10 02:58:38;;;;;;;8.07;5.10;;;;;;;9.97;100.00;98529.97;5234457;28;20029;-77
2023/03/10 03:01:09;;;;;;;8.32;4.85;;;;;;;10.15;100.00;98532.19;5234145;28;20398;-77
2023/03/10 03:03:41;;;;;;;6.22;5.00;;;;;;;9.97;100.00;98536.00;5234309;28;20367;-76
2023/03/10 03:06:12;;;;;;;8.57;5.60;;;;;;;9.92;100.00;98535.72;5234295;28;20116;-77
2023/03/10 03:08:44;;;;;;;5.40;4.90;;;;;;;9.97;100.00;98530.78;5233926;28;20029;-76
2023/03/10 03:11:15;;;;;;;7.20;5.38;;;;;;;10.08;100.00;98520.84;5232653;28;20029;-76
2023/03/10 03:13:47;;;;;;;8.43;4.95;;;;;;;10.05;100.00;98524.63;5232756;28;20060;-77
2023/03/10 03:16:18;;;;;;;7.50;4.50;;;;;;;10.06;100.00;98522.81;5235096;28;20046;-78
2023/03/10 03:18:49;;;;;;;7.43;4.38;;;;;;;10.01;100.00;98514.72;5234042;28;20499;-77
2023/03/10 03:21:20;;;;;;;7.80;4.90;;;;;;;9.96;100.00;98512.63;5234111;28;20029;-77
2023/03/10 03:23:52;;;;;;;9.15;4.70;;;;;;;9.92;100.00;98509.56;5234464;28;20021;-77
2023/03/10 03:26:25;;;;;;;8.90;4.63;;;;;;;9.84;100.00;98507.06;5234794;28;20041;-77
2023/03/10 03:28:57;;;;;;;6.72;4.07;;;;;;;9.90;100.00;98519.44;5234240;28;20343;-76
2023/03/10 03:31:28;;;;;;;7.05;4.20;;;;;;;10.00;100.00;98508.69;5243940;22;20308;-72
2023/03/10 03:33:59;;;;;;;9.10;4.10;;;;;;;10.05;100.00;98514.19;5239543;28;20112;-72
2023/03/10 03:36:30;;;;;;;7.93;4.72;;;;;;;9.95;100.00;98516.25;5237080;28;20040;-72
2023/03/10 03:39:05;;;;;;;8.00;3.40;;;;;;;10.03;100.00;98517.97;5243176;28;20581;-72
2023/03/10 03:41:36;;;;;;;6.57;3.78;;;;;;;10.04;100.00;98524.81;5249543;28;20036;-72
2023/03/10 03:44:08;;;;;;;6.80;2.92;;;;;;;10.04;100.00;98524.81;5241902;28;20030;-72
2023/03/10 03:46:39;;;;;;;9.85;3.17;;;;;;;10.05;100.00;98515.97;5244076;28;20033;-72
2023/03/10 03:49:10;;;;;;;13.40;3.90;;;;;;;10.02;100.00;98514.53;5244146;28;20683;-72
2023/03/10 03:51:42;;;;;;;8.30;3.53;;;;;;;10.05;100.00;98515.97;5242684;28;20040;-71
2023/03/10 03:54:13;;;;;;;7.50;3.55;;;;;;;9.97;100.00;98517.72;5247298;28;20029;-72
2023/03/10 03:56:44;;;;;;;9.68;3.33;;;;;;;10.05;100.00;98505.53;5244216;28;20029;-73
2023/03/10 03:59:15;;;;;;;7.10;3.00;;;;;;;10.10;100.00;98500.53;5246530;28;20470;-73
2023/03/10 04:01:47;;;;;;;7.43;3.05;;;;;;;10.08;100.00;98500.72;5238548;28;20033;-73
2023/03/10 04:04:18;;;;;;;7.78;3.25;;;;;;;10.02;100.00;98501.47;5244461;28;20040;-73
2023/03/10 04:06:49;;;;;;;6.25;2.85;;;;;;;10.06;100.00;98501.91;5245668;28;20028;-73
2023/03/10 04:09:21;;;;;;;10.10;3.10;;;;;;;10.09;100.00;98493.69;5242498;28;20033;-73
2023/03/10 04:11:52;;;;;;;13.88;3.38;;;;;;;10.08;100.00;98492.88;5242827;28;20120;-73
2023/03/10 04:14:23;;;;;;;9.50;3.13;;;;;;;10.14;100.00;98493.94;5242836;28;20033;-73
2023/03/10 04:16:55;;;;;;;10.90;2.97;;;;;;;10.11;100.00;98492.50;5242954;28;20390;-73
2023/03/10 04:19:26;;;;;;;5.28;2.92;;;;;;;10.16;100.00;98494.56;5245701;28;20032;-73
2023/03/10 04:21:57;;;;;;;6.88;2.90;;;;;;;10.16;100.00;98490.16;5245631;28;20020;-73
2023/03/10 04:24:28;;;;;;;7.45;2.75;;;;;;;10.13;100.00;98492.31;5241309;28;20501;-73
2023/03/10 04:27:00;;;;;;;9.60;2.45;;;;;;;10.22;100.00;98491.19;5241437;28;20025;-73
2023/03/10 04:29:31;;;;;;;7.90;2.40;;;;;;;10.28;100.00;98493.13;5241125;28;20747;-73
2023/03/10 04:32:03;;;;;;;10.63;2.83;;;;;;;10.18;100.00;98497.81;5243650;28;20076;-73
2023/03/10 04:34:34;;;;;;;11.27;3.78;;;;;;;10.19;100.00;98499.41;5242402;28;20067;-73
2023/03/10 04:37:06;;;;;;;10.15;2.50;;;;;;;10.13;100.00;98498.38;5244389;28;20492;-73
2023/03/10 04:39:37;;;;;;;8.93;2.42;;;;;;;10.10;100.00;98496.09;5246293;28;20074;-73
2023/03/10 04:42:08;;;;;;;10.95;3.13;;;;;;;10.07;100.00;98482.59;5240310;28;20112;-73
2023/03/10 04:44:40;;;;;;;7.95;2.17;;;;;;;10.02;100.00;98477.09;5243493;28;20029;-73
2023/03/10 04:47:11;;;;;;;10.40;2.35;;;;;;;10.02;100.00;98474.50;5244995;28;20662;-73
2023/03/10 04:49:42;;;;;;;8.23;2.58;;;;;;;9.95;100.00;98477.84;5238237;28;20550;-73
2023/03/10 04:52:14;;;;;;;9.38;2.60;;;;;;;9.99;100.00;98473.84;5247887;28;20040;-73
2023/03/10 04:54:45;;;;;;;14.13;2.58;;;;;;;10.04;100.00;98470.72;5239317;28;20180;-73
2023/03/10 04:57:17;;;;;;;12.77;3.08;;;;;;;9.97;100.00;98477.66;5238977;28;20112;-73
2023/03/10 04:59:49;;;;;;;14.10;2.70;;;;;;;10.00;100.00;98469.47;5241202;28;20062;-73
2023/03/10 05:02:20;;;;;;;13.25;3.30;;;;;;;9.96;100.00;98476.03;5244225;28;20048;-73
2023/03/10 05:04:51;;;;;;;10.98;2.28;;;;;;;9.94;100.00;98476.22;5241702;28;20025;-73
2023/03/10 05:07:23;;;;;;;13.18;2.92;;;;;;;9.94;100.00;98471.00;5242284;28;20535;-74
2023/03/10 05:09:54;;;;;;;10.35;2.53;;;;;;;10.01;100.00;98478.09;5243952;28;20058;-73
2023/03/10 05:12:26;;;;;;;9.80;2.95;;;;;;;10.01;100.00;98475.50;5245328;28;20093;-73
2023/03/10 05:14:57;;;;;;;11.73;2.53;;;;;;;10.01;100.00;98472.88;5244612;28;20025;-73
2023/03/10 05:17:29;;;;;;;12.18;2.90;;;;;;;10.02;100.00;98464.84;5251010;28;20128;-73
2023/03/10 05:20:00;;;;;;;15.00;3.25;;;;;;;9.97;100.00;98468.00;5242488;28;20037;-73
2023/03/10 05:22:31;;;;;;;8.00;2.60;;;;;;;10.03;100.00;98470.88;5243744;28;20025;-73
2023/03/10 05:25:04;;;;;;;17.15;3.60;;;;;;;10.03;100.00;98473.50;5245773;28;20029;-73
2023/03/10 05:27:37;;;;;;;15.75;3.75;;;;;;;10.01;100.00;98468.47;5244608;28;20025;-73
2023/03/10 05:30:13;;;;;;;14.45;2.83;;;;;;;10.00;100.00;98469.47;5247770;28;20029;-73
2023/03/10 05:32:44;;;;;;;13.57;3.25;;;;;;;10.02;100.00;98470.06;5248018;28;20037;-73
2023/03/10 05:35:15;;;;;;;11.15;3.13;;;;;;;10.01;100.00;98478.91;5236014;28;20045;-73
2023/03/10 05:37:47;;;;;;;13.60;2.92;;;;;;;10.01;100.00;98478.91;5245723;28;20029;-73
2023/03/10 05:40:18;;;;;;;12.50;2.72;;;;;;;10.03;100.00;98476.09;5243717;28;20503;-73
2023/03/10 05:42:50;;;;;;;11.68;2.72;;;;;;;10.08;100.00;98477.19;5245836;28;20344;-73
2023/03/10 05:45:21;;;;;;;9.10;2.97;;;;;;;10.05;100.00;98474.94;5243786;28;20037;-73
2023/03/10 05:47:53;;;;;;;9.98;2.60;;;;;;;10.04;100.00;98477.72;5243664;28;20022;-73
2023/03/10 05:50:24;;;;;;;17.20;3.03;;;;;;;9.95;100.00;98477.84;5240795;28;20543;-73
2023/03/10 05:52:56;;;;;;;12.43;2.83;;;;;;;9.96;100.00;98471.63;5243959;28;20402;-73
2023/03/10 05:55:28;;;;;;;10.20;3.03;;;;;;;9.92;100.00;98472.16;5247033;28;20036;-73
2023/03/10 05:57:59;;;;;;;14.37;3.20;;;;;;;9.99;100.00;98484.31;5242847;28;20121;-73
2023/03/10 06:00:31;;;;;;;12.38;3.60;;;;;;;10.10;100.00;98479.59;5243186;28;20366;-73
2023/03/10 06:03:03;;;;;;;12.20;3.28;;;;;;;10.07;100.00;98478.16;5244257;28;20029;-73
2023/03/10 06:05:34;;;;;;;13.70;3.03;;;;;;;10.02;100.00;98480.53;5245800;28;20021;-73
2023/03/10 06:08:05;;;;;;;18.05;3.85;;;;;;;9.91;100.00;98481.81;5245784;28;20039;-73
2023/03/10 06:10:37;;;;;;;15.95;3.60;;;;;;;9.91;100.00;98483.63;5244947;28;20029;-73
2023/03/10 06:13:08;;;;;;;10.93;2.70;;;;;;;9.93;100.00;98485.06;5244747;28;20091;-73
2023/03/10 06:15:39;;;;;;;12.73;2.88;;;;;;;9.98;100.00;98481.91;5246509;28;20485;-73
2023/03/10 06:18:11;;;;;;;16.80;2.85;;;;;;;10.03;100.00;98486.56;5243908;28;20035;-73
2023/03/10 06:20:42;;;;;;;12.27;3.05;;;;;;;10.03;100.00;98486.56;5243646;28;20037;-73
2023/03/10 06:23:17;;;;;;;10.98;2.63;;;;;;;9.96;100.00;98497.78;5243505;28;20032;-73
2023/03/10 06:26:15;;;;;;;10.60;2.95;;;;;;;10.27;100.00;98493.31;5242026;28;20063;-73
2023/03/10 06:28:46;;;;;;;10.25;3.00;;;;;;;9.99;100.00;98500.00;5242802;28;20037;-73
2023/03/10 06:31:21;;;;;;;16.55;3.53;;;;;;;10.06;100.00;98510.56;5241560;28;20025;-73
2023/03/10 06:33:52;;;;;;;17.70;3.92;;;;;;;10.02;100.00;98492.81;5239886;28;20113;-73
2023/03/10 06:36:25;;;;;;;9.55;2.80;;;;;;;10.05;100.00;98495.06;5243871;28;20471;-72
2023/03/10 06:38:57;;;;;;;9.90;2.53;;;;;;;10.05;100.00;98495.06;5250030;28;20021;-73
2023/03/10 06:41:28;;;;;;;12.90;2.70;;;;;;;10.03;100.00;98490.00;5245165;28;20028;-73
2023/03/10 06:43:59;;;;;;;10.43;2.95;;;;;;;10.09;100.00;98496.31;5242763;28;20136;-72
2023/03/10 06:46:31;;;;;;;5.43;1.98;;;;;;;10.07;100.00;98493.84;5240600;28;20029;-73
2023/03/10 06:49:02;;;;;;;11.38;2.55;;;;;;;10.01;100.00;98494.63;5241575;28;20072;-73
2023/03/10 06:51:33;;;;;;;9.63;2.00;;;;;;;10.04;100.00;98498.66;5241163;28;20544;-73
2023/03/10 06:54:05;;;;;;;7.82;2.30;;;;;;;10.01;100.00;98484.16;5243862;28;20482;-73
2023/03/10 06:56:36;;;;;;;6.15;2.10;;;;;;;10.07;100.00;98493.84;5241046;28;20701;-73
2023/03/10 06:59:07;;;;;;;5.93;2.00;;;;;;;10.10;100.00;98498.72;5238395;28;20033;-73
2023/03/10 07:01:39;;;;;;;7.55;2.00;;;;;;;10.13;100.00;98502.78;5238645;28;20025;-73
2023/03/10 07:04:11;;;;;;;7.43;2.38;;;;;;;10.11;100.00;98496.91;5240093;28;20039;-73
2023/03/10 07:06:42;;;;;;;10.73;2.70;;;;;;;10.08;100.00;98494.69;5244448;28;20036;-73
2023/03/10 07:09:14;;;;;;;7.55;2.30;;;;;;;10.17;100.00;98504.03;5243877;28;20041;-73
2023/03/10 07:11:45;;;;;;;15.98;2.80;;;;;;;10.15;100.00;98504.22;5244684;28;20027;-73
2023/03/10 07:14:16;;;;;;;9.25;2.70;;;;;;;10.22;100.00;98507.72;5243417;28;20036;-73
2023/03/10 07:16:48;;;;;;;14.23;3.35;;;;;;;10.30;100.00;98506.00;5239399;28;20489;-73
2023/03/10 07:19:19;;;;;;;14.93;3.67;;;;;;;10.33;100.00;98508.25;5248399;28;20033;-73
2023/03/10 07:21:51;;;;;;;8.82;2.92;;;;;;;10.34;100.00;98510.72;5243176;28;20053;-72
2023/03/10 07:24:22;;;;;;;10.68;3.30;;;;;;;10.38;100.00;98504.09;5243349;28;20021;-73
2023/03/10 07:26:53;;;;;;;13.35;2.95;;;;;;;10.42;100.00;98513.19;5250852;28;20047;-72
2023/03/10 07:29:25;;;;;;;11.95;2.90;;;;;;;10.46;100.00;98518.88;5248320;28;20406;-73
2023/03/10 07:31:56;;;;;;;10.30;3.22;;;;;;;10.44;100.00;98516.44;5237185;28;20037;-73
2023/03/10 07:34:27;;;;;;;14.27;2.53;;;;;;;10.61;100.00;98511.78;5239339;28;20034;-73
2023/03/10 07:36:58;;;;;;;11.90;3.00;;;;;;;10.72;100.00;98515.69;5241278;28;20017;-73
2023/03/10 07:39:31;;;;;;;12.63;3.33;;;;;;;10.79;100.00;98521.78;5251226;28;20052;-73
2023/03/10 07:42:02;;;;;;;10.05;2.67;;;;;;;10.82;100.00;98521.41;5248203;28;20116;-73
2023/03/10 07:44:34;;;;;;;12.05;2.90;;;;;;;10.94;100.00;98516.47;5240039;28;20096;-73
2023/03/10 07:47:05;;;;;;;10.18;2.30;;;;;;;10.97;100.00;98526.56;5248677;28;20021;-73
2023/03/10 07:49:36;;;;;;;9.05;2.33;;;;;;;10.99;100.00;98527.22;5239029;28;20025;-73
2023/03/10 07:52:08;;;;;;;16.75;3.10;;;;;;;11.06;100.00;98525.44;5240468;28;20026;-73
2023/03/10 07:54:39;;;;;;;10.90;1.92;;;;;;;11.17;100.00;98527.56;5250072;28;20043;-73
2023/03/10 07:57:14;;;;;;;9.93;2.35;;;;;;;11.26;100.00;98528.22;5239050;28;20043;-73
2023/03/10 07:59:46;;;;;;;12.85;3.03;;;;;;;11.14;100.00;98525.31;5243125;28;20471;-73
2023/03/10 08:02:17;;;;;;;8.23;2.30;;;;;;;11.14;100.00;98524.50;5243985;28;20033;-73
2023/03/10 08:04:48;;;;;;;10.68;2.40;;;;;;;11.17;100.00;98531.97;5246034;28;20021;-73
2023/03/10 08:07:19;;;;;;;8.90;2.88;;;;;;;11.31;100.00;98528.44;5239872;28;20059;-73
2023/03/10 08:09:52;;;;;;;9.48;2.17;;;;;;;11.30;100.00;98526.81;5239563;28;20025;-73
2023/03/10 08:12:23;;;;;;;12.77;2.97;;;;;;;11.32;100.00;98524.00;5245692;28;20135;-73
2023/03/10 08:14:54;;;;;;;8.68;2.33;;;;;;;11.43;100.00;98526.91;5249656;28;20148;-74
2023/03/10 08:17:29;;;;;;;11.73;3.22;;;;;;;11.43;100.00;98529.53;5247875;28;20040;-74
2023/03/10 08:20:00;;;;;;;11.27;3.03;;;;;;;11.48;100.00;98530.75;5245946;28;20025;-74
2023/03/10 08:22:32;;;;;;;13.07;2.40;;;;;;;11.54;100.00;98527.38;5243819;28;20040;-74
2023/03/10 08:25:04;;;;;;;10.80;2.35;;;;;;;11.58;100.00;98529.41;5239556;28;20025;-74
2023/03/10 08:27:36;;;;;;;7.47;3.00;;;;;;;11.64;100.00;98538.34;5246627;28;20735;-74
2023/03/10 08:30:09;;;;;;;11.02;2.78;;;;;;;11.58;100.00;98534.66;5246218;28;20103;-74
2023/03/10 08:32:40;;;;;;;11.20;3.03;;;;;;;11.54;100.00;98537.84;5238574;28;20041;-74
2023/03/10 08:35:12;;;;;;;10.23;2.53;;;;;;;11.49;100.00;98527.16;5248635;28;20048;-74
2023/03/10 08:37:43;;;;;;;11.80;2.72;;;;;;;11.58;100.00;98529.41;5242966;28;20068;-74
2023/03/10 08:40:15;;;;;;;9.18;2.20;;;;;;;11.55;100.00;98532.41;5236701;28;20482;-74
2023/03/10 08:42:46;;;;;;;12.75;2.53;;;;;;;11.69;100.00;98533.31;5239820;28;20029;-74
2023/03/10 08:45:17;;;;;;;9.20;2.60;;;;;;;11.79;100.00;98535.59;5243566;28;20025;-74
2023/03/10 08:47:49;;;;;;;8.75;2.60;;;;;;;11.84;100.00;98525.34;5235988;28;20055;-74
2023/03/10 08:50:20;;;;;;;7.60;2.28;;;;;;;11.90;100.00;98532.44;5246263;28;20044;-74
2023/03/10 08:52:51;;;;;;;7.85;2.40;;;;;;;12.00;100.00;98529.44;5243132;28;20028;-74
2023/03/10 08:55:23;;;;;;;9.20;2.90;;;;;;;12.12;100.00;98525.25;5244941;28;20401;-74
2023/03/10 08:57:54;;;;;;;9.95;2.60;;;;;;;12.03;100.00;98527.22;5239960;28;20123;-74
2023/03/10 09:00:26;;;;;;;9.38;2.25;;;;;;;12.06;100.00;98536.53;5240831;28;20056;-74
2023/03/10 09:02:57;;;;;;;8.13;2.63;;;;;;;12.06;100.00;98536.53;5238654;28;20091;-74
2023/03/10 09:05:28;;;;;;;8.60;2.58;;;;;;;11.97;100.00;98532.44;5239605;28;20048;-74
2023/03/10 09:08:00;;;;;;;12.05;2.53;;;;;;;11.92;100.00;98531.22;5243484;28;20022;-74
2023/03/10 09:10:31;;;;;;;12.02;2.60;;;;;;;11.96;100.00;98536.09;5239825;28;20044;-74
2023/03/10 09:13:03;;;;;;;9.38;2.17;;;;;;;11.87;100.00;98522.34;5246636;28;20025;-74
2023/03/10 09:15:39;;;;;;;7.78;2.30;;;;;;;11.95;100.00;98529.22;5241558;28;20025;-74
2023/03/10 09:18:12;;;;;;;7.72;2.10;;;;;;;12.02;100.00;98523.00;5241410;28;20398;-74
2023/03/10 09:20:45;;;;;;;11.80;2.85;;;;;;;11.95;100.00;98518.72;5247026;28;20033;-74
2023/03/10 09:23:17;;;;;;;9.65;2.50;;;;;;;11.96;100.00;98529.03;5243596;28;20032;-74
2023/03/10 09:25:48;;;;;;;9.30;2.67;;;;;;;12.00;100.00;98526.81;5244275;28;20100;-74
2023/03/10 09:28:20;;;;;;;8.00;2.58;;;;;;;11.91;100.00;98527.00;5249014;28;20112;-74
2023/03/10 09:30:53;;;;;;;11.98;2.30;;;;;;;11.80;100.00;98529.31;5237655;28;20033;-73
2023/03/10 09:33:24;;;;;;;;;;;;;;;12.39;100.00;98532.22;5241570;28;20136;-73
2023/03/10 09:35:56;;;;;;;8.65;2.25;;;;;;;11.74;100.00;98524.84;5244427;28;20042;-73
2023/03/10 09:38:28;;;;;;;6.85;2.58;;;;;;;11.63;100.00;98527.03;5244286;28;20029;-73
2023/03/10 09:41:14;;;;;;;5.63;1.85;;;;;;;11.75;100.00;98529.09;5240003;28;20026;-73
2023/03/10 09:43:52;;;;;;;6.60;1.90;;;;;;;11.59;100.00;98528.44;5241027;28;20033;-73
2023/03/10 09:46:29;;;;;;;9.77;2.47;;;;;;;11.64;100.00;98540.94;5255597;22;20197;-72
2023/03/10 09:49:18;;;;;;;5.35;1.60;;;;;;;11.85;100.00;98535.63;5225978;28;20017;-74
2023/03/10 09:51:50;;;;;;;5.97;1.92;;;;;;;11.80;100.00;98531.94;5231952;28;20106;-74
2023/03/10 09:54:39;;;;;;;5.60;1.63;;;;;;;11.84;100.00;98535.84;5233306;28;20053;-73
2023/03/10 09:57:16;;;;;;;8.13;1.92;;;;;;;12.01;100.00;98542.38;5233492;28;20033;-74
2023/03/10 09:59:52;;;;;;;8.13;2.10;;;;;;;11.81;100.00;98544.88;5237263;28;20611;-74
2023/03/10 10:02:34;;;;;;;6.90;2.40;;;;;;;11.95;100.00;98544.97;5235993;28;20025;-74
2023/03/10 10:05:13;;;;;;;8.40;2.10;;;;;;;11.96;100.00;98542.13;5236192;28;20033;-75
2023/03/10 10:07:51;;;;;;;9.18;2.40;;;;;;;11.95;100.00;98555.47;5237187;28;20683;-74
2023/03/10 10:10:26;;;;;;;9.40;2.15;;;;;;;11.92;100.00;98552.22;5236708;28;20382;-74
2023/03/10 10:13:06;;;;;;;7.22;2.20;;;;;;;11.82;100.00;98551.75;5236036;28;20036;-74
2023/03/10 10:15:40;;;;;;;8.68;1.90;;;;;;;11.76;100.00;98557.75;5237546;28;20488;-74
2023/03/10 10:18:13;;;;;;;7.45;2.33;;;;;;;11.68;100.00;98558.72;5237483;28;20525;-74
2023/03/10 10:21:10;;;;;;;9.32;3.03;;;;;;;11.68;100.00;98566.59;5236756;28;20064;-74
2023/03/10 10:23:51;;;;;;;7.25;2.22;;;;;;;11.64;100.00;98564.56;5229660;28;20045;-75
2023/03/10 10:26:25;;;;;;;9.40;2.40;;;;;;;11.43;100.00;98574.09;5237024;28;20394;-74
2023/03/10 10:29:11;;;;;;;13.40;2.63;;;;;;;11.45;100.00;98566.84;5235896;28;20100;-73
2023/03/10 10:32:01;;;;;;;7.40;2.50;;;;;;;11.59;100.00;98561.69;5233210;28;20478;-74
2023/03/10 10:34:35;;;;;;;9.30;2.60;;;;;;;11.39;100.00;98551.88;5237121;28;20140;-75
2023/03/10 10:37:30;;;;;;;9.15;2.50;;;;;;;11.72;100.00;98555.72;5234863;28;20512;-73
2023/03/10 10:40:03;;;;;;;6.57;2.13;;;;;;;11.54;100.00;98556.22;5235225;28;20075;-73
2023/03/10 10:42:35;;;;;;;;;;;;;;;12.20;100.00;98555.75;5234407;28;20408;-73
2023/03/10 10:45:25;;;;;;;8.85;2.70;;;;;;;11.91;100.00;98553.22;5236549;28;19946;-73
2023/03/10 10:47:57;;;;;;;12.35;2.50;;;;;;;11.57;100.00;98542.72;5232443;28;20060;-74
2023/03/10 10:50:34;;;;;;;8.38;2.78;;;;;;;11.64;100.00;98541.75;5234892;28;20493;-74
2023/03/10 10:53:12;;;;;;;8.00;2.63;;;;;;;11.75;100.00;98545.66;5236429;28;20025;-73
2023/03/10 10:55:45;;;;;;;7.95;2.60;;;;;;;11.63;100.00;98534.06;5233662;28;20061;-73
2023/03/10 10:58:27;;;;;;;;;;;;;;;12.24;100.00;98523.69;5236164;28;20060;-73
2023/03/10 11:01:02;;;;;;;10.75;3.00;;;;;;;11.67;100.00;98524.84;5235103;28;19939;-74
2023/03/10 11:03:36;;;;;;;8.93;3.00;;;;;;;11.58;100.00;98526.78;5235989;28;20386;-73
2023/03/10 11:06:28;;;;;;;7.97;2.80;;;;;;;11.79;100.00;98522.47;5234457;28;20041;-73
2023/03/10 11:09:07;;;;;;;9.07;2.70;;;;;;;11.67;100.00;98530.09;5234524;28;20033;-73
2023/03/10 11:11:48;;;;;;;6.65;2.33;;;;;;;11.55;100.00;98527.16;5231593;28;20049;-73
2023/03/10 11:14:31;;;;;;;8.15;2.25;;;;;;;11.58;100.00;98524.16;5234526;28;20404;-73
2023/03/10 11:17:08;;;;;;;;;;;;;;;12.17;100.00;98528.09;5235239;28;20325;-73
2023/03/10 11:19:49;;;;;;;5.15;2.00;;;;;;;11.79;100.00;98528.53;5236193;28;20008;-74
2023/03/10 11:22:46;;;;;;;6.38;2.05;;;;;;;11.80;100.00;98519.63;5235384;28;20029;-73
2023/03/10 11:25:55;;;;;;;5.57;1.90;;;;;;;11.84;100.00;98514.84;5235620;28;20033;-73
2023/03/10 11:28:52;;;;;;;5.28;2.03;;;;;;;11.80;100.00;98518.84;5234632;28;20587;-73
2023/03/10 11:31:51;;;;;;;8.27;2.10;;;;;;;11.86;100.00;98516.28;5234915;28;20025;-73
2023/03/10 11:34:30;;;;;;;3.30;1.40;;;;;;;11.47;100.00;98514.22;5222893;28;20021;-73
2023/03/10 11:37:29;;;;;;;4.47;1.52;;;;;;;11.65;100.00;98514.53;5234940;28;20029;-73
2023/03/10 11:40:18;;;;;;;4.32;1.85;;;;;;;11.43;100.00;98513.78;5234729;28;20032;-73
2023/03/10 11:43:10;;;;;;;4.53;2.30;;;;;;;11.64;100.00;98512.91;5234615;28;20132;-73
2023/03/10 11:45:47;;;;;;;3.42;1.58;;;;;;;11.38;100.00;98500.47;5233818;28;20045;-73
2023/03/10 11:48:27;;;;;;;5.32;1.60;;;;;;;11.50;100.00;98505.16;5232504;28;20573;-73
2023/03/10 11:51:03;;;;;;;3.08;1.95;;;;;;;11.47;100.00;98501.09;5234120;28;20063;-73
2023/03/10 11:53:44;;;;;;;5.60;2.15;;;;;;;11.60;100.00;98500.38;5235915;28;20452;-73
2023/03/10 11:56:19;;;;;;;4.68;2.03;;;;;;;11.57;100.00;98500.78;5231263;28;20025;-74